Terminal Aerodrome Forecast
Issued by NWS

Home | Current Version | Previous Version | Text Only | Print | Product List | Glossary On
Versions: 1 2 3 4 5 6 7 8 9 10 11 12 13 14
000
FTPA31 PHFO 212330
TAFHKO
TAF
PHKO 212330Z 2200/2224 31015KT P6SM FEW030 BKN060
     FM220500 03009KT P6SM FEW030 SCT050
     FM222000 31015KT P6SM FEW030 SCT050=

USA.gov is the U.S. government's official web portal to all federal, state and local government web resources and services.